Time;durP1;ratioP1;P1;durP2;ratioP2;P2;SDS_P1;SDS_P2;PMS_P1;PMS_P2;Temp;Humidity;BMP_temperature;BMP_pressure;BME280_temperature;BME280_humidity;BME280_pressure;Samples;Min_cycle;Max_cycle;Signal;HPM_P1;HPM_P2
2022/12/10 00:02:11;;;;;;;107.82;38.28;;;;;;;-3.64;100.00;100815.88;5244300;28;20025;-85
2022/12/10 00:04:42;;;;;;;106.68;37.83;;;;;;;-3.72;100.00;100810.06;5262139;28;20033;-84
2022/12/10 00:07:13;;;;;;;115.90;39.33;;;;;;;-3.75;100.00;100817.13;5258343;28;20087;-86
2022/12/10 00:09:45;;;;;;;99.93;38.45;;;;;;;-3.75;100.00;100822.34;5263598;28;20079;-85
2022/12/10 00:12:16;;;;;;;98.20;36.78;;;;;;;-3.63;100.00;100821.94;5263955;28;20022;-86
2022/12/10 00:14:47;;;;;;;99.20;37.17;;;;;;;-3.70;100.00;100821.31;5261004;28;20017;-85
2022/12/10 00:17:19;;;;;;;106.30;38.17;;;;;;;-3.83;100.00;100825.22;5248988;28;20025;-85
2022/12/10 00:19:50;;;;;;;107.60;37.78;;;;;;;-3.70;100.00;100823.91;5270956;28;20040;-85
2022/12/10 00:22:21;;;;;;;105.35;37.90;;;;;;;-3.78;100.00;100827.69;5269070;28;20029;-84
2022/12/10 00:24:53;;;;;;;112.97;38.05;;;;;;;-3.81;100.00;100829.47;5288091;28;20121;-84
2022/12/10 00:27:24;;;;;;;118.90;39.85;;;;;;;-3.76;100.00;100831.09;5284471;28;20067;-85
2022/12/10 00:29:55;;;;;;;104.90;37.90;;;;;;;-3.95;100.00;100830.84;5270891;28;20031;-85
2022/12/10 00:32:27;;;;;;;96.38;35.65;;;;;;;-3.80;100.00;100836.41;5260789;28;20029;-84
2022/12/10 00:34:58;;;;;;;113.40;41.35;;;;;;;-3.83;100.00;100839.09;5244392;28;20052;-85
2022/12/10 00:37:29;;;;;;;109.90;40.97;;;;;;;-3.82;100.00;100843.41;5259254;28;20029;-84
2022/12/10 00:40:01;;;;;;;114.18;42.28;;;;;;;-3.80;100.00;100844.22;5246878;28;20037;-85
2022/12/10 00:42:32;;;;;;;114.53;40.45;;;;;;;-3.74;100.00;100834.50;5260017;28;20532;-85
2022/12/10 00:45:04;;;;;;;111.22;40.58;;;;;;;-3.83;100.00;100836.50;5261054;28;20105;-85
2022/12/10 00:47:36;;;;;;;113.78;41.08;;;;;;;-3.91;100.00;100840.25;5261262;28;20037;-85
2022/12/10 00:50:07;;;;;;;108.43;37.70;;;;;;;-4.09;100.00;100823.47;5260535;28;20024;-85
2022/12/10 00:52:38;;;;;;;114.22;40.40;;;;;;;-3.93;100.00;100822.06;5260561;28;20037;-86
2022/12/10 00:55:10;;;;;;;107.63;39.53;;;;;;;-3.87;100.00;100821.03;5261689;28;20037;-85
2022/12/10 00:57:41;;;;;;;118.97;40.92;;;;;;;-3.86;100.00;100826.16;5261562;28;20028;-85
2022/12/10 01:00:13;;;;;;;113.57;41.53;;;;;;;-3.92;100.00;100821.16;5260635;28;20033;-85
2022/12/10 01:02:44;;;;;;;115.20;39.75;;;;;;;-3.92;100.00;100815.13;5260411;28;20502;-86
2022/12/10 01:05:15;;;;;;;111.30;41.47;;;;;;;-3.97;100.00;100810.03;5259419;28;20029;-86
2022/12/10 01:07:47;;;;;;;122.95;41.63;;;;;;;-3.95;100.00;100810.84;5261020;28;20033;-85
2022/12/10 01:10:18;;;;;;;116.72;39.55;;;;;;;-3.84;100.00;100811.34;5258750;28;20036;-85
2022/12/10 01:12:49;;;;;;;115.72;43.00;;;;;;;-3.92;100.00;100820.31;5261271;28;20100;-85
2022/12/10 01:15:21;;;;;;;110.03;41.40;;;;;;;-3.77;100.00;100818.94;5260473;28;20022;-86
2022/12/10 01:17:52;;;;;;;129.75;44.58;;;;;;;-3.91;100.00;100820.28;5259567;28;20382;-86
2022/12/10 01:20:23;;;;;;;119.30;42.92;;;;;;;-4.01;100.00;100821.47;5257782;28;20040;-85
2022/12/10 01:22:55;;;;;;;110.97;38.13;;;;;;;-3.91;100.00;100827.22;5260653;28;20057;-86
2022/12/10 01:25:26;;;;;;;124.63;44.28;;;;;;;-3.97;100.00;100823.06;5260353;28;20440;-86
2022/12/10 01:27:57;;;;;;;123.53;45.28;;;;;;;-3.99;100.00;100825.72;5257862;28;20026;-85
2022/12/10 01:30:29;;;;;;;115.78;40.75;;;;;;;-4.01;100.00;100837.09;5259129;28;20036;-85
2022/12/10 01:33:00;;;;;;;113.18;40.63;;;;;;;-4.00;100.00;100838.78;5259988;28;20026;-86
2022/12/10 01:35:34;;;;;;;128.52;44.38;;;;;;;-3.89;100.00;100852.34;5258475;28;20033;-85
2022/12/10 01:38:06;;;;;;;121.75;42.75;;;;;;;-3.85;100.00;100848.72;5260088;28;20033;-85
2022/12/10 01:40:38;;;;;;;118.50;42.83;;;;;;;-3.80;100.00;100846.81;5258484;28;20041;-86
2022/12/10 01:43:14;;;;;;;139.27;49.78;;;;;;;-3.75;100.00;100856.22;5260513;28;20032;-85
2022/12/10 01:45:45;;;;;;;131.15;43.42;;;;;;;-3.65;100.00;100855.03;5258748;28;20033;-84
2022/12/10 01:48:17;;;;;;;134.57;47.08;;;;;;;-3.70;100.00;100852.59;5257960;28;20394;-85
2022/12/10 01:50:48;;;;;;;137.45;48.15;;;;;;;-3.69;100.00;100858.66;5249376;28;20910;-86
2022/12/10 01:53:19;;;;;;;211.18;52.25;;;;;;;-3.71;100.00;100856.09;5242135;28;20030;-84
2022/12/10 01:55:51;;;;;;;393.55;58.28;;;;;;;-3.76;100.00;100852.78;5242643;28;20080;-85
2022/12/10 01:58:22;;;;;;;295.00;46.42;;;;;;;-3.73;100.00;100852.69;5241488;28;20124;-85
2022/12/10 02:01:05;;;;;;;383.10;51.28;;;;;;;-3.70;100.00;100849.13;5259597;28;20044;-84
2022/12/10 02:03:52;;;;;;;448.75;53.30;;;;;;;-3.66;100.00;100856.78;5248973;28;20144;-85
2022/12/10 02:06:53;;;;;;;389.98;53.30;;;;;;;-3.65;100.00;100845.44;5259038;28;20065;-85
2022/12/10 02:09:45;;;;;;;252.88;48.10;;;;;;;-3.65;100.00;100848.06;5259979;28;20036;-85
2022/12/10 02:12:31;;;;;;;252.88;52.17;;;;;;;-3.58;100.00;100861.75;5258582;28;20030;-85
2022/12/10 02:15:02;;;;;;;207.87;50.30;;;;;;;-3.50;100.00;100854.50;5260053;28;20026;-85
2022/12/10 02:17:42;;;;;;;227.23;49.00;;;;;;;-3.42;100.00;100847.28;5259139;28;20033;-85
2022/12/10 02:20:20;;;;;;;195.75;47.35;;;;;;;-3.34;100.00;100847.00;5257713;28;20029;-86
2022/12/10 02:22:57;;;;;;;453.23;58.38;;;;;;;-2.95;100.00;100849.09;5258789;28;20057;-84
2022/12/10 02:25:37;;;;;;;315.90;57.30;;;;;;;-3.03;100.00;100848.53;5252156;28;20037;-85
2022/12/10 02:28:24;;;;;;;358.20;59.17;;;;;;;-2.96;100.00;100847.41;5259136;28;20105;-84
2022/12/10 02:30:56;;;;;;;276.67;53.17;;;;;;;-2.91;100.00;100848.09;5255313;28;20033;-85
2022/12/10 02:33:30;;;;;;;489.27;64.32;;;;;;;-2.57;100.00;100845.97;5258275;28;20466;-85
2022/12/10 02:36:03;;;;;;;436.63;66.28;;;;;;;-2.40;100.00;100858.38;5259219;28;20052;-85
2022/12/10 02:38:37;;;;;;;276.95;55.03;;;;;;;-2.37;100.00;100853.03;5274409;28;20056;-85
2022/12/10 02:41:15;;;;;;;261.70;53.78;;;;;;;-2.27;100.00;100843.94;5257623;28;20041;-86
2022/12/10 02:43:51;;;;;;;269.65;52.42;;;;;;;-2.19;100.00;100851.47;5257561;28;20382;-85
2022/12/10 02:46:25;;;;;;;246.20;53.20;;;;;;;-2.23;100.00;100842.06;5258058;28;20060;-85
2022/12/10 02:48:57;;;;;;;262.20;56.35;;;;;;;-2.35;100.00;100843.38;5257515;28;20609;-85
2022/12/10 02:51:29;;;;;;;230.15;55.20;;;;;;;-2.47;100.00;100840.34;5258154;28;20159;-84
2022/12/10 02:54:02;;;;;;;188.10;49.17;;;;;;;-2.53;100.00;100832.72;5263903;28;20140;-85
2022/12/10 02:56:40;;;;;;;216.60;52.67;;;;;;;-2.52;100.00;100841.44;5258255;28;20033;-85
2022/12/10 02:59:38;;;;;;;216.10;49.42;;;;;;;-2.42;100.00;100845.41;5259388;28;20032;-85
2022/12/10 03:02:17;;;;;;;193.23;48.63;;;;;;;-2.49;100.00;100846.53;5257031;28;20048;-85
2022/12/10 03:04:51;;;;;;;201.27;50.63;;;;;;;-2.50;100.00;100853.50;5255899;28;20609;-85
2022/12/10 03:07:33;;;;;;;192.55;49.28;;;;;;;-2.47;100.00;100849.94;5257732;28;20045;-85
2022/12/10 03:10:19;;;;;;;202.48;49.08;;;;;;;-2.50;100.00;100850.91;5259359;28;20100;-85
2022/12/10 03:12:58;;;;;;;201.23;49.60;;;;;;;-2.48;100.00;100850.84;5259131;28;20369;-85
2022/12/10 03:15:34;;;;;;;189.52;49.05;;;;;;;-2.52;100.00;100863.19;5258344;28;20026;-85
2022/12/10 03:18:08;;;;;;;182.07;49.95;;;;;;;-2.51;100.00;100851.84;5258342;28;20072;-85
2022/12/10 03:20:44;;;;;;;210.23;46.08;;;;;;;-2.54;100.00;100851.94;5256061;28;20559;-85
2022/12/10 03:23:18;;;;;;;240.20;48.90;;;;;;;-2.53;100.00;100850.16;5258213;28;20076;-85
2022/12/10 03:25:50;;;;;;;180.48;45.92;;;;;;;-2.63;100.00;100849.69;5256811;28;20073;-85
2022/12/10 03:28:22;;;;;;;195.35;45.95;;;;;;;-2.55;100.00;100845.00;5257687;28;20343;-85
2022/12/10 03:30:56;;;;;;;235.23;46.80;;;;;;;-2.58;100.00;100847.72;5257002;28;20030;-85
2022/12/10 03:33:27;;;;;;;255.45;47.42;;;;;;;-2.58;100.00;100847.72;5257737;28;20026;-85
2022/12/10 03:35:59;;;;;;;270.20;48.33;;;;;;;-2.55;100.00;100846.78;5257685;28;20533;-85
2022/12/10 03:38:31;;;;;;;244.07;48.45;;;;;;;-2.55;100.00;100847.63;5258563;28;20371;-85
2022/12/10 03:41:03;;;;;;;297.58;52.30;;;;;;;-2.63;100.00;100854.91;5257550;28;20155;-85
2022/12/10 03:43:34;;;;;;;319.23;54.55;;;;;;;-2.71;100.00;100852.56;5257463;28;20067;-85
2022/12/10 03:46:06;;;;;;;209.07;46.60;;;;;;;-2.65;100.00;100856.69;5256850;28;20025;-85
2022/12/10 03:48:37;;;;;;;239.50;50.58;;;;;;;-2.69;100.00;100855.97;5256879;28;20454;-86
2022/12/10 03:51:08;;;;;;;248.98;48.33;;;;;;;-2.77;100.00;100860.66;5257735;28;20025;-84
2022/12/10 03:53:40;;;;;;;224.43;48.10;;;;;;;-2.77;100.00;100870.22;5256169;28;20144;-85
2022/12/10 03:56:11;;;;;;;281.38;49.55;;;;;;;-2.76;100.00;100858.88;5258644;28;20025;-86
2022/12/10 03:58:43;;;;;;;204.70;46.78;;;;;;;-2.69;100.00;100862.97;5256973;28;20394;-85
2022/12/10 04:01:15;;;;;;;243.75;49.22;;;;;;;-2.67;100.00;100871.59;5256842;28;20034;-84
2022/12/10 04:03:46;;;;;;;321.65;53.15;;;;;;;-2.60;100.00;100869.59;5255312;28;20129;-86
2022/12/10 04:06:18;;;;;;;234.75;46.72;;;;;;;-2.64;100.00;100874.09;5257569;28;20406;-86
2022/12/10 04:08:52;;;;;;;216.55;46.50;;;;;;;-2.55;100.00;100870.28;5255227;28;20064;-85
2022/12/10 04:11:24;;;;;;;223.15;47.53;;;;;;;-2.46;100.00;100867.31;5259325;28;20475;-84
2022/12/10 04:16:45;;;;;;;405.25;56.95;;;;;;;-2.50;100.00;100863.97;5259349;28;20390;-85
2022/12/10 04:19:18;;;;;;;411.00;55.63;;;;;;;-2.67;100.00;100867.19;5260072;28;20036;-85
2022/12/10 04:27:36;;;;;;;250.48;47.78;;;;;;;-2.59;100.00;100863.47;5259660;28;20029;-85
2022/12/10 04:30:10;;;;;;;275.67;50.13;;;;;;;-2.61;100.00;100863.53;5246044;28;20038;-84
2022/12/10 04:32:41;;;;;;;268.92;52.60;;;;;;;-2.69;100.00;100866.41;5259403;28;20447;-85
2022/12/10 04:35:13;;;;;;;245.85;49.45;;;;;;;-2.69;100.00;100871.63;5257412;28;20121;-85
2022/12/10 04:37:44;;;;;;;272.77;54.42;;;;;;;-2.72;100.00;100883.94;5258632;28;20360;-85
2022/12/10 04:40:16;;;;;;;198.55;47.40;;;;;;;-2.71;100.00;100876.06;5241811;28;20572;-84
2022/12/10 04:42:47;;;;;;;321.80;50.42;;;;;;;-2.66;100.00;100871.53;5259387;28;20017;-85
2022/12/10 04:45:18;;;;;;;307.80;52.63;;;;;;;-2.55;100.00;100878.13;5261040;28;20034;-85
2022/12/10 04:47:50;;;;;;;280.55;49.85;;;;;;;-2.54;100.00;100882.41;5246699;28;20109;-85
2022/12/10 04:50:21;;;;;;;254.85;48.60;;;;;;;-2.56;100.00;100881.63;5264521;28;20026;-86
2022/12/10 04:52:52;;;;;;;226.63;50.97;;;;;;;-2.63;100.00;100872.31;5265404;28;20112;-85
2022/12/10 04:55:24;;;;;;;203.05;47.22;;;;;;;-2.54;100.00;100880.66;5277616;28;20045;-85
2022/12/10 04:57:55;;;;;;;239.85;49.22;;;;;;;-2.44;100.00;100888.16;5280634;28;20107;-85
2022/12/10 05:00:26;;;;;;;235.45;49.47;;;;;;;-2.42;100.00;100886.31;5270092;28;20080;-85
2022/12/10 05:02:58;;;;;;;230.30;51.15;;;;;;;-2.45;100.00;100889.06;5265390;28;20040;-84
2022/12/10 05:05:29;;;;;;;212.27;47.17;;;;;;;-2.45;100.00;100886.44;5260356;28;20026;-84
2022/12/10 05:08:00;;;;;;;231.73;51.10;;;;;;;-2.53;100.00;100891.97;5244230;28;20363;-86
2022/12/10 05:10:34;;;;;;;228.90;53.72;;;;;;;-2.56;100.00;100886.84;5260788;28;20363;-85
2022/12/10 05:13:06;;;;;;;207.75;48.28;;;;;;;-2.63;100.00;100877.53;5243869;28;20422;-84
2022/12/10 05:15:38;;;;;;;191.05;44.85;;;;;;;-2.55;100.00;100884.19;5261510;28;20028;-85
2022/12/10 05:18:09;;;;;;;225.98;48.15;;;;;;;-2.49;100.00;100883.09;5258454;28;20105;-86
2022/12/10 05:20:41;;;;;;;209.00;47.30;;;;;;;-2.49;100.00;100883.97;5246715;28;20550;-85
2022/12/10 05:23:27;;;;;;;263.08;46.53;;;;;;;-2.46;100.00;100885.59;5264019;28;20056;-84
2022/12/10 05:26:01;;;;;;;233.37;49.27;;;;;;;-2.46;100.00;100888.22;5255076;28;20525;-85
2022/12/10 05:28:39;;;;;;;293.00;46.78;;;;;;;-2.47;100.00;100886.53;5264857;28;20338;-85
2022/12/10 05:31:29;;;;;;;255.90;49.58;;;;;;;-2.36;100.00;100886.13;5263474;28;20100;-84
2022/12/10 05:34:01;;;;;;;230.25;43.38;;;;;;;-2.25;100.00;100890.91;5264926;28;20481;-84
2022/12/10 05:36:32;;;;;;;222.18;43.15;;;;;;;-2.01;100.00;100889.13;5264022;28;20072;-85
2022/12/10 05:39:05;;;;;;;245.38;45.70;;;;;;;-2.15;100.00;100880.03;5265383;28;20022;-84
2022/12/10 05:41:38;;;;;;;255.90;48.60;;;;;;;-2.06;100.00;100889.28;5266040;28;20045;-84
2022/12/10 05:44:10;;;;;;;365.23;42.65;;;;;;;-1.84;100.00;100880.56;5271475;28;20056;-85
2022/12/10 05:46:41;;;;;;;373.95;51.42;;;;;;;-2.08;100.00;100877.19;5283999;28;20060;-84
2022/12/10 05:49:13;;;;;;;342.30;52.92;;;;;;;-2.23;100.00;100882.09;5272395;28;20049;-84
2022/12/10 05:51:44;;;;;;;295.50;47.13;;;;;;;-2.22;100.00;100885.59;5305398;28;20033;-84
2022/12/10 05:54:15;;;;;;;303.70;53.28;;;;;;;-2.35;100.00;100888.66;5288615;28;20013;-85
2022/12/10 05:56:47;;;;;;;304.45;44.78;;;;;;;-2.15;100.00;100889.66;5288737;28;20429;-85
2022/12/10 05:59:18;;;;;;;283.27;48.40;;;;;;;-2.34;100.00;100890.34;5289210;28;20033;-84
2022/12/10 06:01:49;;;;;;;284.52;45.53;;;;;;;-2.36;100.00;100891.34;5286929;28;20029;-84
2022/12/10 06:04:21;;;;;;;289.60;45.08;;;;;;;-2.32;100.00;100887.69;5278767;28;20573;-84
2022/12/10 06:06:52;;;;;;;310.92;54.30;;;;;;;-2.36;100.00;100899.16;5278636;28;20033;-85
2022/12/10 06:09:23;;;;;;;269.35;44.33;;;;;;;-2.41;100.00;100896.72;5269468;28;20466;-84
2022/12/10 06:11:55;;;;;;;308.02;52.22;;;;;;;-2.51;100.00;100896.25;5270002;28;20467;-85
2022/12/10 06:14:26;;;;;;;394.67;46.50;;;;;;;-2.47;100.00;100902.19;5269025;28;20041;-84
2022/12/10 06:16:58;;;;;;;237.70;43.63;;;;;;;-2.47;100.00;100894.34;5267627;28;20061;-84
2022/12/10 06:19:29;;;;;;;250.88;43.67;;;;;;;-2.36;100.00;100892.19;5267599;28;20026;-83
2022/12/10 06:22:01;;;;;;;239.52;44.67;;;;;;;-2.40;100.00;100889.72;5266742;28;20371;-84
2022/12/10 06:24:32;;;;;;;234.32;44.55;;;;;;;-2.29;100.00;100900.63;5261307;28;20029;-84
2022/12/10 06:27:05;;;;;;;234.63;45.35;;;;;;;-2.29;100.00;100904.09;5270795;28;20041;-84
2022/12/10 06:29:36;;;;;;;210.18;44.50;;;;;;;-2.27;100.00;100906.66;5258341;28;20069;-83
2022/12/10 06:32:07;;;;;;;203.63;46.05;;;;;;;-2.26;100.00;100905.75;5259151;28;20041;-85
2022/12/10 06:34:39;;;;;;;192.63;42.10;;;;;;;-2.26;100.00;100905.75;5278039;28;20179;-85
2022/12/10 06:37:10;;;;;;;180.73;44.15;;;;;;;-2.35;100.00;100906.09;5257154;28;20037;-84
2022/12/10 06:39:41;;;;;;;195.00;43.58;;;;;;;-2.33;100.00;100906.88;5260972;28;20413;-84
2022/12/10 06:42:13;;;;;;;295.60;51.00;;;;;;;-2.41;100.00;100909.78;5260530;28;20021;-83
2022/12/10 06:44:45;;;;;;;219.07;44.25;;;;;;;-2.37;100.00;100907.91;5262153;28;20060;-85
2022/12/10 06:47:16;;;;;;;202.82;45.28;;;;;;;-2.38;100.00;100908.84;5263586;28;20486;-84
2022/12/10 06:49:48;;;;;;;257.90;45.58;;;;;;;-2.38;100.00;100911.44;5260483;28;20034;-84
2022/12/10 06:52:19;;;;;;;225.10;43.00;;;;;;;-2.43;100.00;100910.78;5255063;28;20059;-85
2022/12/10 06:54:51;;;;;;;227.10;44.85;;;;;;;-2.48;100.00;100917.00;5256917;28;20033;-85
2022/12/10 06:57:22;;;;;;;218.43;45.13;;;;;;;-2.50;100.00;100920.59;5274043;28;20410;-84
2022/12/10 06:59:53;;;;;;;232.50;45.72;;;;;;;-2.44;100.00;100917.72;5257822;28;20433;-85
2022/12/10 07:02:25;;;;;;;244.80;47.47;;;;;;;-2.40;100.00;100932.41;5257763;28;20029;-85
2022/12/10 07:04:56;;;;;;;226.30;46.78;;;;;;;-2.42;100.00;100936.84;5256470;28;20600;-85
2022/12/10 07:07:28;;;;;;;217.23;45.97;;;;;;;-2.38;100.00;100940.19;5255823;28;20037;-84
2022/12/10 07:09:59;;;;;;;196.68;44.42;;;;;;;-2.41;100.00;100933.31;5259449;28;20080;-84
2022/12/10 07:12:31;;;;;;;202.43;44.95;;;;;;;-2.37;100.00;100936.66;5257218;28;20024;-84
2022/12/10 07:15:02;;;;;;;198.80;46.47;;;;;;;-2.31;100.00;100931.22;5258322;28;20021;-85
2022/12/10 07:17:34;;;;;;;194.30;45.60;;;;;;;-2.23;100.00;100934.34;5257923;28;20021;-85
2022/12/10 07:20:05;;;;;;;229.40;48.28;;;;;;;-2.19;100.00;100932.47;5257066;28;20084;-84
2022/12/10 07:22:37;;;;;;;233.93;49.17;;;;;;;-2.13;100.00;100938.31;5254987;28;20033;-84
2022/12/10 07:25:11;;;;;;;250.57;52.05;;;;;;;-2.22;100.00;100943.06;5273059;28;20056;-85
2022/12/10 07:27:42;;;;;;;204.27;48.25;;;;;;;-2.26;100.00;100946.69;5261672;28;20438;-85
2022/12/10 07:30:14;;;;;;;202.10;46.95;;;;;;;-2.23;100.00;100950.03;5256085;28;20112;-84
2022/12/10 07:32:45;;;;;;;217.23;46.88;;;;;;;-2.27;100.00;100938.00;5274791;28;20030;-83
2022/12/10 07:35:16;;;;;;;262.13;49.63;;;;;;;-2.20;100.00;100955.16;5260082;28;20021;-84
2022/12/10 07:37:48;;;;;;;310.65;47.42;;;;;;;-2.31;100.00;100957.34;5259977;28;20041;-84
2022/12/10 07:40:19;;;;;;;271.63;43.65;;;;;;;-2.31;100.00;100957.34;5269536;28;20025;-83
2022/12/10 07:42:50;;;;;;;337.48;44.38;;;;;;;-2.28;100.00;100959.81;5260283;28;20061;-84
2022/12/10 07:45:22;;;;;;;298.50;46.03;;;;;;;-2.39;100.00;100951.53;5258066;28;20550;-84
2022/12/10 07:47:53;;;;;;;275.20;46.15;;;;;;;-2.36;100.00;100961.88;5262695;28;20112;-84
2022/12/10 07:50:25;;;;;;;312.48;48.33;;;;;;;-2.40;100.00;100960.25;5245511;28;20029;-85
2022/12/10 07:52:56;;;;;;;320.35;45.63;;;;;;;-2.24;100.00;100964.03;5262496;28;20060;-85
2022/12/10 07:55:27;;;;;;;416.35;54.03;;;;;;;-2.23;100.00;100972.72;5261163;28;20343;-84
2022/12/10 07:57:59;;;;;;;417.88;50.05;;;;;;;-2.24;100.00;100968.38;5263311;28;20071;-85
2022/12/10 08:00:30;;;;;;;380.98;47.42;;;;;;;-2.20;100.00;100967.38;5260481;28;20726;-84
2022/12/10 08:03:01;;;;;;;361.50;45.65;;;;;;;-2.19;100.00;100961.22;5243410;28;20093;-84
2022/12/10 08:05:33;;;;;;;409.83;51.03;;;;;;;-2.28;100.00;100973.75;5261216;28;20449;-85
2022/12/10 08:08:05;;;;;;;393.15;49.70;;;;;;;-2.23;100.00;100965.72;5263770;28;20057;-84
2022/12/10 08:10:37;;;;;;;295.63;44.40;;;;;;;-2.19;100.00;100974.28;5261403;28;20022;-85
2022/12/10 08:13:08;;;;;;;325.10;45.00;;;;;;;-2.15;100.00;100979.34;5241972;28;20026;-84
2022/12/10 08:15:40;;;;;;;381.42;48.78;;;;;;;-2.20;100.00;100978.69;5240944;28;20037;-83
2022/12/10 08:18:11;;;;;;;248.65;44.35;;;;;;;-2.15;100.00;100981.13;5259506;28;20035;-85
2022/12/10 08:20:45;;;;;;;387.92;53.10;;;;;;;-2.15;100.00;100984.59;5261261;28;20510;-84
2022/12/10 08:23:17;;;;;;;314.02;42.40;;;;;;;-2.09;100.00;100980.88;5253639;28;20096;-85
2022/12/10 08:25:48;;;;;;;395.42;50.83;;;;;;;-2.08;100.00;100989.59;5266907;28;20050;-84
2022/12/10 08:28:20;;;;;;;347.80;47.47;;;;;;;-2.11;100.00;100988.78;5261605;28;20037;-85
2022/12/10 08:30:51;;;;;;;345.83;45.88;;;;;;;-2.06;100.00;100993.84;5262632;28;20037;-85
2022/12/10 08:33:22;;;;;;;344.38;44.75;;;;;;;-2.05;100.00;100997.31;5264274;28;20056;-85
2022/12/10 08:35:59;;;;;;;385.08;47.70;;;;;;;-2.03;100.00;100998.09;5277230;28;20040;-85
2022/12/10 08:38:31;;;;;;;;;;;;;;;-1.97;100.00;101009.16;5259713;28;20064;-85
2022/12/10 08:41:10;;;;;;;314.45;42.58;;;;;;;-1.94;100.00;101000.38;5260319;28;20468;-85
2022/12/10 08:43:44;;;;;;;270.90;41.90;;;;;;;-1.90;100.00;101005.41;5261673;28;20076;-85
2022/12/10 08:46:16;;;;;;;350.48;46.13;;;;;;;-1.95;100.00;101012.56;5260834;28;20386;-85
2022/12/10 08:48:47;;;;;;;360.90;44.88;;;;;;;-2.06;100.00;101021.75;5259377;28;20022;-85
2022/12/10 08:51:20;;;;;;;367.40;42.65;;;;;;;-2.08;100.00;101018.34;5256377;28;20044;-85
2022/12/10 08:53:51;;;;;;;303.25;42.53;;;;;;;-2.12;100.00;101017.63;5261537;28;20068;-85
2022/12/10 08:56:23;;;;;;;296.85;42.95;;;;;;;-2.14;100.00;101020.28;5257266;28;20029;-84
2022/12/10 08:58:54;;;;;;;303.88;41.97;;;;;;;-2.04;100.00;101027.78;5244107;28;20025;-83
2022/12/10 09:01:26;;;;;;;213.45;41.97;;;;;;;-2.02;100.00;101021.56;5251278;28;20048;-83
2022/12/10 09:03:58;;;;;;;247.23;40.80;;;;;;;-1.91;100.00;101024.66;5256408;28;20105;-83
2022/12/10 09:06:30;;;;;;;251.30;40.40;;;;;;;-1.73;100.00;101027.47;5266825;28;20021;-83
2022/12/10 09:09:01;;;;;;;282.27;43.55;;;;;;;-1.82;100.00;101035.63;5268429;28;20034;-84
2022/12/10 09:11:33;;;;;;;276.00;41.05;;;;;;;-1.88;100.00;101026.28;5261603;28;20017;-83
2022/12/10 09:14:05;;;;;;;306.30;45.97;;;;;;;-2.04;100.00;101025.16;5261705;28;20029;-83
2022/12/10 09:16:38;;;;;;;265.88;38.83;;;;;;;-2.01;100.00;101035.50;5261490;28;20394;-83
2022/12/10 09:19:10;;;;;;;247.85;39.83;;;;;;;-2.00;100.00;101027.63;5261744;28;20048;-83
2022/12/10 09:21:41;;;;;;;331.00;42.58;;;;;;;-2.05;100.00;101028.66;5260319;28;20084;-83
2022/12/10 09:24:13;;;;;;;271.27;42.58;;;;;;;-2.00;100.00;101026.75;5262717;28;20100;-83
2022/12/10 09:26:44;;;;;;;280.45;45.08;;;;;;;-2.08;100.00;101041.88;5263029;28;20117;-83
2022/12/10 09:29:16;;;;;;;214.40;37.40;;;;;;;-2.14;100.00;101035.09;5264147;28;20027;-83
2022/12/10 09:31:51;;;;;;;197.85;36.70;;;;;;;-2.15;100.00;101038.63;5250635;28;20355;-83
2022/12/10 09:34:23;;;;;;;228.20;34.42;;;;;;;-1.98;100.00;101033.63;5251713;28;20091;-83
2022/12/10 09:36:54;;;;;;;308.67;39.80;;;;;;;-1.94;100.00;101031.75;5247599;28;20017;-83
2022/12/10 09:39:25;;;;;;;303.73;38.92;;;;;;;-1.79;100.00;101035.53;5244468;28;20045;-83
2022/12/10 09:42:00;;;;;;;305.15;42.05;;;;;;;-1.89;100.00;101040.28;5243782;28;20022;-83
2022/12/10 09:44:37;;;;;;;356.42;42.55;;;;;;;-1.93;100.00;101046.50;5241993;28;20053;-84
2022/12/10 09:47:10;;;;;;;337.70;40.40;;;;;;;-1.87;100.00;101053.28;5234542;28;20044;-83
2022/12/10 09:50:14;;;;;;;232.57;38.17;;;;;;;-1.94;100.00;101045.66;5254668;28;20088;-83
2022/12/10 09:52:47;;;;;;;299.20;37.78;;;;;;;-1.82;100.00;101054.81;5194675;28;20088;-83
2022/12/10 09:55:29;;;;;;;180.35;34.05;;;;;;;-1.83;100.00;101060.09;5257770;28;20076;-83
2022/12/10 09:58:04;;;;;;;239.50;37.38;;;;;;;-1.82;100.00;101043.47;5260300;28;20037;-84
2022/12/10 10:00:38;;;;;;;252.57;37.65;;;;;;;-1.80;100.00;101053.00;5242826;28;20033;-83
2022/12/10 10:03:14;;;;;;;238.32;35.88;;;;;;;-1.64;100.00;101052.41;5250575;28;20131;-82
2022/12/10 10:05:48;;;;;;;218.60;37.20;;;;;;;-1.76;100.00;101062.41;5264772;28;20162;-84
2022/12/10 10:08:36;;;;;;;208.93;39.88;;;;;;;-1.81;100.00;101055.66;5268157;28;20256;-83
2022/12/10 10:11:14;;;;;;;249.43;37.63;;;;;;;-1.79;100.00;101061.69;5281662;28;20025;-81
2022/12/10 10:13:53;;;;;;;246.85;38.50;;;;;;;-1.84;100.00;101077.56;5261035;28;20351;-83
2022/12/10 10:16:33;;;;;;;201.90;36.88;;;;;;;-1.87;100.00;101064.59;5256945;28;20046;-83
2022/12/10 10:19:13;;;;;;;186.10;36.70;;;;;;;-1.85;100.00;101078.47;5239902;28;20083;-83
2022/12/10 10:21:47;;;;;;;209.25;42.72;;;;;;;-1.97;100.00;101063.22;5239571;28;20033;-83
2022/12/10 10:24:22;;;;;;;170.68;36.60;;;;;;;-1.88;100.00;101077.72;5246616;28;20080;-84
2022/12/10 10:26:59;;;;;;;154.63;35.03;;;;;;;-1.87;100.00;101071.59;5259273;28;20414;-83
2022/12/10 10:29:31;;;;;;;156.52;34.08;;;;;;;-1.85;100.00;101069.78;5257521;28;20048;-83
2022/12/10 10:32:40;;;;;;;190.90;36.42;;;;;;;-1.66;100.00;101064.72;5256848;28;20158;-84
2022/12/10 10:35:23;;;;;;;196.98;37.30;;;;;;;-1.62;100.00;101074.97;5247516;28;20033;-84
2022/12/10 10:37:58;;;;;;;198.85;36.33;;;;;;;-1.62;100.00;101072.34;5276010;28;20625;-84
2022/12/10 10:40:45;;;;;;;184.90;36.40;;;;;;;-1.56;100.00;101066.03;5261065;28;20040;-85
2022/12/10 10:43:24;;;;;;;260.02;39.63;;;;;;;-1.52;100.00;101058.00;5261203;28;20126;-84
2022/12/10 10:46:07;;;;;;;238.82;40.03;;;;;;;-1.47;100.00;101067.44;5259814;28;20103;-83
2022/12/10 10:48:38;;;;;;;199.25;38.80;;;;;;;-1.52;100.00;101065.88;5261523;28;20034;-83
2022/12/10 10:51:15;;;;;;;197.05;36.60;;;;;;;-1.46;100.00;101058.69;5260207;28;20075;-84
2022/12/10 10:53:52;;;;;;;231.30;39.33;;;;;;;-1.55;100.00;101060.75;5258891;28;20482;-84
2022/12/10 10:56:25;;;;;;;;;;;;;;;-1.46;100.00;101061.31;5241787;28;20386;-84
2022/12/10 10:59:07;;;;;;;177.18;37.63;;;;;;;-1.43;100.00;101058.56;5261903;28;19959;-84
2022/12/10 11:01:52;;;;;;;190.23;38.63;;;;;;;-1.33;100.00;101066.00;5261542;28;20113;-83
2022/12/10 11:04:51;;;;;;;226.70;36.72;;;;;;;-1.29;100.00;101056.25;5263607;28;20025;-85
2022/12/10 11:07:36;;;;;;;160.30;37.97;;;;;;;-1.31;100.00;101059.88;5234073;28;20040;-84
2022/12/10 11:10:20;;;;;;;170.48;37.83;;;;;;;-1.36;100.00;101057.41;5259452;28;20029;-83
2022/12/10 11:13:06;;;;;;;157.40;36.65;;;;;;;-1.37;100.00;101056.56;5258712;28;20021;-83
2022/12/10 11:15:41;;;;;;;146.23;35.10;;;;;;;-1.39;100.00;101055.75;5253645;28;20099;-84
2022/12/10 11:18:33;;;;;;;137.43;32.08;;;;;;;-1.36;100.00;101046.94;5262806;28;20030;-84
2022/12/10 11:21:13;;;;;;;244.98;39.65;;;;;;;-1.50;100.00;101044.03;5257195;28;20438;-84
2022/12/10 11:23:47;;;;;;;196.05;35.55;;;;;;;-1.58;100.00;101050.44;5260134;28;20040;-84
2022/12/10 11:26:24;;;;;;;135.60;33.80;;;;;;;-1.39;100.00;101039.22;5255974;28;20497;-85
2022/12/10 11:29:14;;;;;;;228.93;34.50;;;;;;;-1.38;100.00;101048.78;5261005;28;20030;-83
2022/12/10 11:32:04;;;;;;;172.95;35.65;;;;;;;-1.39;100.00;101040.06;5275480;28;20064;-84
2022/12/10 11:34:47;;;;;;;296.38;39.90;;;;;;;-1.47;100.00;101050.00;5273044;28;20033;-85